sensor_id;sensor_type;location;lat;lon;timestamp;P1;durP1;ratioP1;P2;durP2;ratioP2
13075;SDS011;6604;52.484;13.330;2023-04-06T07:48:06;8.77;;;4.60;;
13075;SDS011;6604;52.484;13.330;2023-04-06T07:50:32;5.07;;;4.13;;
13075;SDS011;6604;52.484;13.330;2023-04-06T07:52:59;5.40;;;4.57;;
13075;SDS011;6604;52.484;13.330;2023-04-06T07:55:26;8.50;;;4.60;;
13075;SDS011;6604;52.484;13.330;2023-04-06T07:57:52;11.70;;;4.17;;
13075;SDS011;6604;52.484;13.330;2023-04-06T08:00:19;8.63;;;4.07;;
13075;SDS011;6604;52.484;13.330;2023-04-06T08:02:52;6.23;;;4.20;;
13075;SDS011;6604;52.484;13.330;2023-04-06T08:05:20;6.23;;;3.60;;
13075;SDS011;6604;52.484;13.330;2023-04-06T08:07:47;6.87;;;4.13;;
13075;SDS011;6604;52.484;13.330;2023-04-06T08:10:13;6.17;;;3.90;;
13075;SDS011;6604;52.484;13.330;2023-04-06T08:12:40;11.93;;;4.17;;
13075;SDS011;6604;52.484;13.330;2023-04-06T08:15:07;7.43;;;4.07;;
13075;SDS011;6604;52.484;13.330;2023-04-06T08:17:33;5.73;;;3.70;;
13075;SDS011;6604;52.484;13.330;2023-04-06T08:20:00;7.27;;;3.60;;
13075;SDS011;6604;52.484;13.330;2023-04-06T08:22:32;6.13;;;3.67;;
13075;SDS011;6604;52.484;13.330;2023-04-06T08:24:59;6.30;;;3.53;;
13075;SDS011;6604;52.484;13.330;2023-04-06T08:27:26;7.90;;;3.20;;
13075;SDS011;6604;52.484;13.330;2023-04-06T08:29:52;5.37;;;3.13;;
13075;SDS011;6604;52.484;13.330;2023-04-06T08:32:19;5.63;;;3.10;;
13075;SDS011;6604;52.484;13.330;2023-04-06T08:34:45;6.20;;;2.70;;
13075;SDS011;6604;52.484;13.330;2023-04-06T08:37:12;4.70;;;2.40;;
13075;SDS011;6604;52.484;13.330;2023-04-06T08:39:41;4.63;;;2.63;;
13075;SDS011;6604;52.484;13.330;2023-04-06T08:42:10;4.43;;;2.80;;
13075;SDS011;6604;52.484;13.330;2023-04-06T08:44:37;4.07;;;2.70;;
13075;SDS011;6604;52.484;13.330;2023-04-06T08:47:06;5.37;;;2.60;;
13075;SDS011;6604;52.484;13.330;2023-04-06T08:49:32;5.30;;;2.50;;
13075;SDS011;6604;52.484;13.330;2023-04-06T08:52:00;3.57;;;2.47;;
13075;SDS011;6604;52.484;13.330;2023-04-06T08:54:26;3.50;;;2.70;;
13075;SDS011;6604;52.484;13.330;2023-04-06T08:56:54;5.20;;;2.70;;
13075;SDS011;6604;52.484;13.330;2023-04-06T08:59:23;5.53;;;2.60;;
13075;SDS011;6604;52.484;13.330;2023-04-06T09:01:49;5.67;;;2.73;;
13075;SDS011;6604;52.484;13.330;2023-04-06T09:04:17;3.83;;;3.00;;
13075;SDS011;6604;52.484;13.330;2023-04-06T09:06:44;4.33;;;2.73;;
13075;SDS011;6604;52.484;13.330;2023-04-06T09:09:13;3.83;;;2.13;;
13075;SDS011;6604;52.484;13.330;2023-04-06T09:11:44;5.87;;;2.97;;
13075;SDS011;6604;52.484;13.330;2023-04-06T09:14:12;3.03;;;2.40;;
13075;SDS011;6604;52.484;13.330;2023-04-06T09:16:39;4.07;;;2.27;;
13075;SDS011;6604;52.484;13.330;2023-04-06T09:19:05;3.07;;;1.90;;
13075;SDS011;6604;52.484;13.330;2023-04-06T09:21:32;4.67;;;2.40;;
13075;SDS011;6604;52.484;13.330;2023-04-06T09:23:59;2.90;;;1.90;;
13075;SDS011;6604;52.484;13.330;2023-04-06T09:26:26;5.37;;;2.30;;
13075;SDS011;6604;52.484;13.330;2023-04-06T09:28:53;4.70;;;2.10;;
13075;SDS011;6604;52.484;13.330;2023-04-06T09:31:22;2.53;;;2.30;;
13075;SDS011;6604;52.484;13.330;2023-04-06T09:33:49;4.47;;;2.20;;
13075;SDS011;6604;52.484;13.330;2023-04-06T09:36:17;3.93;;;2.50;;
13075;SDS011;6604;52.484;13.330;2023-04-06T09:38:53;3.27;;;2.20;;
13075;SDS011;6604;52.484;13.330;2023-04-06T09:41:21;3.27;;;2.20;;
13075;SDS011;6604;52.484;13.330;2023-04-06T09:43:47;4.57;;;2.20;;
13075;SDS011;6604;52.484;13.330;2023-04-06T09:46:15;3.60;;;2.00;;
13075;SDS011;6604;52.484;13.330;2023-04-06T09:48:44;2.97;;;2.17;;
13075;SDS011;6604;52.484;13.330;2023-04-06T09:51:11;3.70;;;2.10;;
13075;SDS011;6604;52.484;13.330;2023-04-06T09:53:41;4.83;;;2.30;;
13075;SDS011;6604;52.484;13.330;2023-04-06T09:56:09;12.13;;;1.83;;
13075;SDS011;6604;52.484;13.330;2023-04-06T09:58:38;3.03;;;2.20;;
13075;SDS011;6604;52.484;13.330;2023-04-06T10:01:08;1.90;;;1.60;;
13075;SDS011;6604;52.484;13.330;2023-04-06T10:03:36;3.73;;;2.07;;
13075;SDS011;6604;52.484;13.330;2023-04-06T10:06:10;2.57;;;1.80;;
13075;SDS011;6604;52.484;13.330;2023-04-06T10:08:38;2.63;;;1.80;;
13075;SDS011;6604;52.484;13.330;2023-04-06T10:11:06;2.77;;;1.87;;
13075;SDS011;6604;52.484;13.330;2023-04-06T10:13:34;2.77;;;2.20;;
13075;SDS011;6604;52.484;13.330;2023-04-06T10:16:01;4.27;;;2.03;;
13075;SDS011;6604;52.484;13.330;2023-04-06T10:18:28;2.50;;;1.80;;
13075;SDS011;6604;52.484;13.330;2023-04-06T10:20:56;3.07;;;1.97;;
13075;SDS011;6604;52.484;13.330;2023-04-06T10:23:26;2.93;;;2.13;;
13075;SDS011;6604;52.484;13.330;2023-04-06T10:25:56;2.40;;;2.00;;
13075;SDS011;6604;52.484;13.330;2023-04-06T10:28:23;1.80;;;1.70;;
13075;SDS011;6604;52.484;13.330;2023-04-06T10:30:56;3.60;;;2.17;;
13075;SDS011;6604;52.484;13.330;2023-04-06T10:33:22;3.67;;;2.27;;
13075;SDS011;6604;52.484;13.330;2023-04-06T10:35:49;3.40;;;2.03;;
13075;SDS011;6604;52.484;13.330;2023-04-06T10:38:15;3.47;;;1.73;;
13075;SDS011;6604;52.484;13.330;2023-04-06T10:40:48;2.53;;;2.07;;
13075;SDS011;6604;52.484;13.330;2023-04-06T10:43:18;5.80;;;2.10;;
13075;SDS011;6604;52.484;13.330;2023-04-06T10:45:45;5.43;;;2.20;;
13075;SDS011;6604;52.484;13.330;2023-04-06T10:48:21;5.27;;;2.30;;
13075;SDS011;6604;52.484;13.330;2023-04-06T10:50:49;4.03;;;2.23;;
13075;SDS011;6604;52.484;13.330;2023-04-06T10:53:20;4.57;;;1.93;;
13075;SDS011;6604;52.484;13.330;2023-04-06T10:55:48;5.50;;;2.17;;
13075;SDS011;6604;52.484;13.330;2023-04-06T10:58:15;3.70;;;2.07;;
13075;SDS011;6604;52.484;13.330;2023-04-06T11:00:44;2.43;;;2.00;;
13075;SDS011;6604;52.484;13.330;2023-04-06T11:03:10;3.13;;;2.10;;
13075;SDS011;6604;52.484;13.330;2023-04-06T11:05:37;7.87;;;2.20;;
13075;SDS011;6604;52.484;13.330;2023-04-06T11:08:04;2.20;;;2.00;;
13075;SDS011;6604;52.484;13.330;2023-04-06T11:10:31;2.37;;;2.10;;
13075;SDS011;6604;52.484;13.330;2023-04-06T11:12:59;3.77;;;2.50;;
13075;SDS011;6604;52.484;13.330;2023-04-06T11:15:25;3.47;;;2.10;;
13075;SDS011;6604;52.484;13.330;2023-04-06T11:17:52;2.30;;;2.10;;
13075;SDS011;6604;52.484;13.330;2023-04-06T11:20:18;10.40;;;2.80;;
13075;SDS011;6604;52.484;13.330;2023-04-06T11:22:49;2.20;;;2.00;;
13075;SDS011;6604;52.484;13.330;2023-04-06T11:25:18;2.23;;;2.03;;
13075;SDS011;6604;52.484;13.330;2023-04-06T11:27:45;3.70;;;2.10;;
13075;SDS011;6604;52.484;13.330;2023-04-06T11:30:14;1.97;;;1.80;;
13075;SDS011;6604;52.484;13.330;2023-04-06T11:32:42;2.30;;;2.10;;
13075;SDS011;6604;52.484;13.330;2023-04-06T11:35:10;3.90;;;2.27;;
13075;SDS011;6604;52.484;13.330;2023-04-06T11:37:37;8.67;;;2.37;;
13075;SDS011;6604;52.484;13.330;2023-04-06T11:40:07;4.57;;;2.50;;
13075;SDS011;6604;52.484;13.330;2023-04-06T11:42:34;4.27;;;2.30;;
13075;SDS011;6604;52.484;13.330;2023-04-06T11:45:01;3.70;;;2.00;;
13075;SDS011;6604;52.484;13.330;2023-04-06T11:47:29;2.40;;;2.10;;
13075;SDS011;6604;52.484;13.330;2023-04-06T11:50:05;2.80;;;2.40;;
13075;SDS011;6604;52.484;13.330;2023-04-06T11:52:32;2.43;;;2.10;;
13075;SDS011;6604;52.484;13.330;2023-04-06T11:54:58;2.27;;;1.80;;
13075;SDS011;6604;52.484;13.330;2023-04-06T11:57:36;2.90;;;2.00;;
13075;SDS011;6604;52.484;13.330;2023-04-06T12:00:03;3.30;;;2.20;;
13075;SDS011;6604;52.484;13.330;2023-04-06T12:02:31;4.00;;;2.33;;
13075;SDS011;6604;52.484;13.330;2023-04-06T12:05:02;3.93;;;2.60;;
13075;SDS011;6604;52.484;13.330;2023-04-06T12:07:33;3.87;;;2.50;;
13075;SDS011;6604;52.484;13.330;2023-04-06T12:10:01;2.90;;;2.60;;
13075;SDS011;6604;52.484;13.330;2023-04-06T12:12:27;3.07;;;2.47;;
13075;SDS011;6604;52.484;13.330;2023-04-06T12:14:54;4.20;;;3.17;;
13075;SDS011;6604;52.484;13.330;2023-04-06T12:17:21;5.17;;;2.43;;
13075;SDS011;6604;52.484;13.330;2023-04-06T12:19:49;3.80;;;2.67;;
13075;SDS011;6604;52.484;13.330;2023-04-06T12:22:17;3.53;;;2.23;;
13075;SDS011;6604;52.484;13.330;2023-04-06T12:24:44;3.03;;;2.53;;
13075;SDS011;6604;52.484;13.330;2023-04-06T12:27:10;3.80;;;2.73;;
13075;SDS011;6604;52.484;13.330;2023-04-06T12:29:37;5.30;;;2.60;;
13075;SDS011;6604;52.484;13.330;2023-04-06T12:32:04;2.80;;;2.50;;
13075;SDS011;6604;52.484;13.330;2023-04-06T12:34:31;3.47;;;2.53;;
13075;SDS011;6604;52.484;13.330;2023-04-06T12:36:59;5.63;;;2.60;;
13075;SDS011;6604;52.484;13.330;2023-04-06T12:39:27;2.77;;;2.53;;
13075;SDS011;6604;52.484;13.330;2023-04-06T12:41:53;3.23;;;2.77;;
13075;SDS011;6604;52.484;13.330;2023-04-06T12:44:21;4.77;;;2.80;;
13075;SDS011;6604;52.484;13.330;2023-04-06T12:46:48;6.67;;;3.20;;
13075;SDS011;6604;52.484;13.330;2023-04-06T12:49:15;3.20;;;2.73;;
13075;SDS011;6604;52.484;13.330;2023-04-06T12:51:44;4.53;;;2.70;;
13075;SDS011;6604;52.484;13.330;2023-04-06T12:54:12;2.70;;;2.50;;
13075;SDS011;6604;52.484;13.330;2023-04-06T12:56:39;6.63;;;2.60;;
13075;SDS011;6604;52.484;13.330;2023-04-06T12:59:06;3.67;;;2.73;;
13075;SDS011;6604;52.484;13.330;2023-04-06T13:01:32;3.00;;;2.60;;
13075;SDS011;6604;52.484;13.330;2023-04-06T13:03:59;3.90;;;2.67;;
13075;SDS011;6604;52.484;13.330;2023-04-06T13:06:26;3.93;;;2.80;;
13075;SDS011;6604;52.484;13.330;2023-04-06T13:08:53;3.33;;;2.83;;
13075;SDS011;6604;52.484;13.330;2023-04-06T13:11:21;4.60;;;2.80;;
13075;SDS011;6604;52.484;13.330;2023-04-06T13:13:49;3.00;;;2.67;;
13075;SDS011;6604;52.484;13.330;2023-04-06T13:16:16;4.90;;;3.10;;
13075;SDS011;6604;52.484;13.330;2023-04-06T13:18:43;4.27;;;2.67;;
13075;SDS011;6604;52.484;13.330;2023-04-06T13:21:12;3.27;;;2.77;;
13075;SDS011;6604;52.484;13.330;2023-04-06T13:23:39;5.10;;;3.23;;
13075;SDS011;6604;52.484;13.330;2023-04-06T13:26:06;4.63;;;3.30;;
13075;SDS011;6604;52.484;13.330;2023-04-06T13:28:35;3.70;;;3.20;;
13075;SDS011;6604;52.484;13.330;2023-04-06T13:31:02;3.83;;;2.83;;
13075;SDS011;6604;52.484;13.330;2023-04-06T13:33:30;3.33;;;3.00;;
13075;SDS011;6604;52.484;13.330;2023-04-06T13:35:59;5.60;;;3.30;;
13075;SDS011;6604;52.484;13.330;2023-04-06T13:38:26;4.67;;;3.33;;
13075;SDS011;6604;52.484;13.330;2023-04-06T13:40:53;3.23;;;2.87;;
13075;SDS011;6604;52.484;13.330;2023-04-06T13:43:19;4.20;;;2.87;;
13075;SDS011;6604;52.484;13.330;2023-04-06T13:45:50;3.27;;;2.97;;
13075;SDS011;6604;52.484;13.330;2023-04-06T13:48:16;5.57;;;3.10;;
13075;SDS011;6604;52.484;13.330;2023-04-06T13:50:43;4.23;;;3.30;;
13075;SDS011;6604;52.484;13.330;2023-04-06T13:53:10;3.87;;;3.23;;
13075;SDS011;6604;52.484;13.330;2023-04-06T13:55:36;4.13;;;3.17;;
13075;SDS011;6604;52.484;13.330;2023-04-06T13:58:03;4.07;;;2.97;;
13075;SDS011;6604;52.484;13.330;2023-04-06T14:00:29;3.93;;;2.73;;
13075;SDS011;6604;52.484;13.330;2023-04-06T14:02:57;4.80;;;3.07;;
13075;SDS011;6604;52.484;13.330;2023-04-06T14:05:24;2.77;;;2.57;;
13075;SDS011;6604;52.484;13.330;2023-04-06T14:07:52;3.63;;;2.80;;
13075;SDS011;6604;52.484;13.330;2023-04-06T14:10:19;4.00;;;2.73;;
13075;SDS011;6604;52.484;13.330;2023-04-06T14:12:48;5.70;;;3.73;;
13075;SDS011;6604;52.484;13.330;2023-04-06T14:15:15;3.57;;;2.67;;
13075;SDS011;6604;52.484;13.330;2023-04-06T14:17:42;3.07;;;2.80;;
13075;SDS011;6604;52.484;13.330;2023-04-06T14:20:11;5.07;;;3.10;;
13075;SDS011;6604;52.484;13.330;2023-04-06T14:22:39;4.23;;;3.03;;
13075;SDS011;6604;52.484;13.330;2023-04-06T14:25:07;4.77;;;3.00;;
13075;SDS011;6604;52.484;13.330;2023-04-06T14:27:34;3.30;;;3.00;;
13075;SDS011;6604;52.484;13.330;2023-04-06T14:30:00;4.23;;;3.07;;
13075;SDS011;6604;52.484;13.330;2023-04-06T14:32:27;5.87;;;2.83;;
13075;SDS011;6604;52.484;13.330;2023-04-06T14:34:53;5.43;;;3.17;;
13075;SDS011;6604;52.484;13.330;2023-04-06T14:37:21;4.93;;;3.20;;
13075;SDS011;6604;52.484;13.330;2023-04-06T14:39:48;4.17;;;3.10;;
13075;SDS011;6604;52.484;13.330;2023-04-06T14:42:14;4.10;;;2.90;;
13075;SDS011;6604;52.484;13.330;2023-04-06T14:44:41;5.33;;;2.80;;
13075;SDS011;6604;52.484;13.330;2023-04-06T14:47:10;3.80;;;3.00;;
13075;SDS011;6604;52.484;13.330;2023-04-06T14:49:40;3.47;;;3.00;;
13075;SDS011;6604;52.484;13.330;2023-04-06T14:52:07;3.13;;;2.60;;
13075;SDS011;6604;52.484;13.330;2023-04-06T14:54:35;3.27;;;2.73;;
13075;SDS011;6604;52.484;13.330;2023-04-06T14:57:02;4.27;;;3.00;;
13075;SDS011;6604;52.484;13.330;2023-04-06T14:59:29;3.20;;;2.90;;
13075;SDS011;6604;52.484;13.330;2023-04-06T15:01:57;5.67;;;3.10;;
13075;SDS011;6604;52.484;13.330;2023-04-06T15:04:24;5.40;;;3.37;;
13075;SDS011;6604;52.484;13.330;2023-04-06T15:06:51;6.93;;;3.07;;
13075;SDS011;6604;52.484;13.330;2023-04-06T15:09:19;4.60;;;3.00;;
13075;SDS011;6604;52.484;13.330;2023-04-06T15:11:48;3.20;;;2.87;;
13075;SDS011;6604;52.484;13.330;2023-04-06T15:14:15;7.03;;;3.20;;
13075;SDS011;6604;52.484;13.330;2023-04-06T15:16:42;3.22;;;2.92;;
13075;SDS011;6604;52.484;13.330;2023-04-06T15:19:08;4.53;;;3.10;;
13075;SDS011;6604;52.484;13.330;2023-04-06T15:21:35;3.20;;;2.90;;
13075;SDS011;6604;52.484;13.330;2023-04-06T15:24:02;2.73;;;2.53;;
13075;SDS011;6604;52.484;13.330;2023-04-06T15:26:31;5.80;;;2.93;;
13075;SDS011;6604;52.484;13.330;2023-04-06T15:28:59;2.90;;;2.70;;
13075;SDS011;6604;52.484;13.330;2023-04-06T15:31:27;4.63;;;2.80;;
13075;SDS011;6604;52.484;13.330;2023-04-06T15:33:54;2.93;;;2.63;;
13075;SDS011;6604;52.484;13.330;2023-04-06T15:36:22;2.87;;;2.57;;
13075;SDS011;6604;52.484;13.330;2023-04-06T15:38:49;3.60;;;2.47;;
13075;SDS011;6604;52.484;13.330;2023-04-06T15:41:16;3.60;;;3.00;;
13075;SDS011;6604;52.484;13.330;2023-04-06T15:43:43;2.90;;;2.60;;
13075;SDS011;6604;52.484;13.330;2023-04-06T15:46:13;3.00;;;2.40;;
13075;SDS011;6604;52.484;13.330;2023-04-06T15:48:40;3.40;;;3.00;;
13075;SDS011;6604;52.484;13.330;2023-04-06T15:51:06;3.80;;;3.10;;
13075;SDS011;6604;52.484;13.330;2023-04-06T15:53:33;2.77;;;2.57;;
13075;SDS011;6604;52.484;13.330;2023-04-06T15:56:00;3.73;;;3.00;;
13075;SDS011;6604;52.484;13.330;2023-04-06T15:58:26;3.43;;;2.60;;
13075;SDS011;6604;52.484;13.330;2023-04-06T16:00:53;3.53;;;2.60;;
13075;SDS011;6604;52.484;13.330;2023-04-06T16:03:21;2.80;;;2.60;;
13075;SDS011;6604;52.484;13.330;2023-04-06T16:05:51;4.13;;;2.93;;
13075;SDS011;6604;52.484;13.330;2023-04-06T16:08:18;3.67;;;2.67;;
13075;SDS011;6604;52.484;13.330;2023-04-06T16:10:44;4.90;;;2.97;;
13075;SDS011;6604;52.484;13.330;2023-04-06T16:13:11;4.97;;;2.70;;
13075;SDS011;6604;52.484;13.330;2023-04-06T16:15:38;3.20;;;2.50;;
13075;SDS011;6604;52.484;13.330;2023-04-06T16:18:04;3.73;;;2.97;;
13075;SDS011;6604;52.484;13.330;2023-04-06T16:20:33;5.60;;;2.67;;
13075;SDS011;6604;52.484;13.330;2023-04-06T16:23:00;3.37;;;3.07;;
13075;SDS011;6604;52.484;13.330;2023-04-06T16:25:26;3.43;;;2.90;;
13075;SDS011;6604;52.484;13.330;2023-04-06T16:27:54;3.10;;;2.73;;
13075;SDS011;6604;52.484;13.330;2023-04-06T16:30:21;3.33;;;3.00;;
13075;SDS011;6604;52.484;13.330;2023-04-06T16:32:48;4.13;;;2.70;;
13075;SDS011;6604;52.484;13.330;2023-04-06T16:35:16;3.10;;;2.73;;
13075;SDS011;6604;52.484;13.330;2023-04-06T16:37:45;3.27;;;2.70;;
13075;SDS011;6604;52.484;13.330;2023-04-06T16:40:12;2.97;;;2.70;;
13075;SDS011;6604;52.484;13.330;2023-04-06T16:42:43;3.50;;;2.53;;
13075;SDS011;6604;52.484;13.330;2023-04-06T16:45:14;2.50;;;2.30;;
13075;SDS011;6604;52.484;13.330;2023-04-06T16:47:40;3.30;;;2.33;;
13075;SDS011;6604;52.484;13.330;2023-04-06T16:50:07;2.67;;;2.10;;
13075;SDS011;6604;52.484;13.330;2023-04-06T16:52:34;3.27;;;2.40;;
13075;SDS011;6604;52.484;13.330;2023-04-06T16:55:03;2.63;;;2.30;;
13075;SDS011;6604;52.484;13.330;2023-04-06T16:57:34;2.63;;;2.37;;
13075;SDS011;6604;52.484;13.330;2023-04-06T17:00:01;3.00;;;2.23;;
13075;SDS011;6604;52.484;13.330;2023-04-06T17:02:29;2.30;;;2.10;;
13075;SDS011;6604;52.484;13.330;2023-04-06T17:04:59;5.10;;;2.00;;
13075;SDS011;6604;52.484;13.330;2023-04-06T17:07:26;3.03;;;1.93;;
13075;SDS011;6604;52.484;13.330;2023-04-06T17:09:57;2.73;;;2.43;;
13075;SDS011;6604;52.484;13.330;2023-04-06T17:12:26;3.30;;;2.00;;
13075;SDS011;6604;52.484;13.330;2023-04-06T17:14:53;4.03;;;1.80;;
13075;SDS011;6604;52.484;13.330;2023-04-06T17:17:19;3.17;;;2.13;;
13075;SDS011;6604;52.484;13.330;2023-04-06T17:19:46;2.43;;;2.00;;
13075;SDS011;6604;52.484;13.330;2023-04-06T17:22:13;2.83;;;2.23;;
13075;SDS011;6604;52.484;13.330;2023-04-06T17:24:44;2.63;;;2.13;;
13075;SDS011;6604;52.484;13.330;2023-04-06T17:27:11;2.30;;;2.10;;
13075;SDS011;6604;52.484;13.330;2023-04-06T17:29:39;4.57;;;2.10;;
13075;SDS011;6604;52.484;13.330;2023-04-06T17:32:05;2.73;;;2.47;;
13075;SDS011;6604;52.484;13.330;2023-04-06T17:34:32;2.33;;;2.13;;
13075;SDS011;6604;52.484;13.330;2023-04-06T17:36:58;2.47;;;2.20;;
13075;SDS011;6604;52.484;13.330;2023-04-06T17:39:25;2.37;;;2.10;;
13075;SDS011;6604;52.484;13.330;2023-04-06T17:41:52;2.10;;;1.87;;
13075;SDS011;6604;52.484;13.330;2023-04-06T17:44:18;2.03;;;1.87;;
13075;SDS011;6604;52.484;13.330;2023-04-06T17:46:46;2.20;;;2.00;;
13075;SDS011;6604;52.484;13.330;2023-04-06T17:49:13;2.23;;;2.00;;
13075;SDS011;6604;52.484;13.330;2023-04-06T17:51:39;2.60;;;2.20;;
13075;SDS011;6604;52.484;13.330;2023-04-06T17:54:06;2.30;;;1.87;;
13075;SDS011;6604;52.484;13.330;2023-04-06T17:56:32;4.77;;;2.00;;
13075;SDS011;6604;52.484;13.330;2023-04-06T17:58:59;2.63;;;1.97;;
13075;SDS011;6604;52.484;13.330;2023-04-06T18:01:25;3.97;;;2.30;;
13075;SDS011;6604;52.484;13.330;2023-04-06T18:03:53;3.67;;;2.20;;
13075;SDS011;6604;52.484;13.330;2023-04-06T18:06:19;2.17;;;1.97;;
13075;SDS011;6604;52.484;13.330;2023-04-06T18:08:47;3.60;;;2.17;;
13075;SDS011;6604;52.484;13.330;2023-04-06T18:11:14;3.20;;;2.67;;
13075;SDS011;6604;52.484;13.330;2023-04-06T18:13:42;3.23;;;2.27;;
13075;SDS011;6604;52.484;13.330;2023-04-06T18:16:08;4.73;;;2.20;;
13075;SDS011;6604;52.484;13.330;2023-04-06T18:18:35;3.27;;;2.53;;
13075;SDS011;6604;52.484;13.330;2023-04-06T18:21:04;2.77;;;2.43;;
13075;SDS011;6604;52.484;13.330;2023-04-06T18:23:31;7.43;;;2.70;;
13075;SDS011;6604;52.484;13.330;2023-04-06T18:25:58;2.93;;;2.30;;
13075;SDS011;6604;52.484;13.330;2023-04-06T18:28:24;5.03;;;2.50;;
13075;SDS011;6604;52.484;13.330;2023-04-06T18:30:51;5.47;;;3.10;;
13075;SDS011;6604;52.484;13.330;2023-04-06T18:33:17;6.27;;;2.80;;
13075;SDS011;6604;52.484;13.330;2023-04-06T18:35:44;4.20;;;2.80;;
13075;SDS011;6604;52.484;13.330;2023-04-06T18:38:12;5.60;;;3.40;;
13075;SDS011;6604;52.484;13.330;2023-04-06T18:40:38;5.23;;;3.10;;
13075;SDS011;6604;52.484;13.330;2023-04-06T18:43:06;5.90;;;3.10;;
13075;SDS011;6604;52.484;13.330;2023-04-06T18:45:33;4.43;;;3.27;;
13075;SDS011;6604;52.484;13.330;2023-04-06T18:48:05;5.57;;;3.60;;
13075;SDS011;6604;52.484;13.330;2023-04-06T18:50:32;5.20;;;3.60;;
13075;SDS011;6604;52.484;13.330;2023-04-06T18:52:58;5.63;;;3.50;;
13075;SDS011;6604;52.484;13.330;2023-04-06T18:55:26;4.90;;;3.30;;
13075;SDS011;6604;52.484;13.330;2023-04-06T18:57:53;5.90;;;3.30;;
13075;SDS011;6604;52.484;13.330;2023-04-06T19:00:19;4.73;;;3.50;;
13075;SDS011;6604;52.484;13.330;2023-04-06T19:02:46;4.07;;;3.37;;
13075;SDS011;6604;52.484;13.330;2023-04-06T19:05:12;7.17;;;3.40;;
13075;SDS011;6604;52.484;13.330;2023-04-06T19:07:39;5.20;;;3.87;;
13075;SDS011;6604;52.484;13.330;2023-04-06T19:10:06;6.37;;;3.40;;
13075;SDS011;6604;52.484;13.330;2023-04-06T19:12:34;3.97;;;3.57;;
13075;SDS011;6604;52.484;13.330;2023-04-06T19:15:02;6.43;;;3.87;;
13075;SDS011;6604;52.484;13.330;2023-04-06T19:17:29;5.43;;;3.83;;
13075;SDS011;6604;52.484;13.330;2023-04-06T19:19:55;5.73;;;3.90;;
13075;SDS011;6604;52.484;13.330;2023-04-06T19:22:22;5.47;;;3.83;;
13075;SDS011;6604;52.484;13.330;2023-04-06T19:24:49;4.00;;;3.60;;
13075;SDS011;6604;52.484;13.330;2023-04-06T19:27:15;4.90;;;3.77;;
13075;SDS011;6604;52.484;13.330;2023-04-06T19:29:43;6.03;;;3.97;;
13075;SDS011;6604;52.484;13.330;2023-04-06T19:32:10;4.97;;;3.97;;
13075;SDS011;6604;52.484;13.330;2023-04-06T19:34:37;4.43;;;3.47;;
13075;SDS011;6604;52.484;13.330;2023-04-06T19:37:03;5.23;;;3.90;;
13075;SDS011;6604;52.484;13.330;2023-04-06T19:39:30;4.93;;;4.17;;
13075;SDS011;6604;52.484;13.330;2023-04-06T19:41:57;4.77;;;4.27;;
13075;SDS011;6604;52.484;13.330;2023-04-06T19:44:23;5.07;;;3.90;;
13075;SDS011;6604;52.484;13.330;2023-04-06T19:46:51;5.17;;;4.07;;
13075;SDS011;6604;52.484;13.330;2023-04-06T19:49:18;6.63;;;4.00;;
13075;SDS011;6604;52.484;13.330;2023-04-06T19:51:45;5.87;;;3.60;;
13075;SDS011;6604;52.484;13.330;2023-04-06T19:54:11;5.83;;;4.10;;
13075;SDS011;6604;52.484;13.330;2023-04-06T19:56:38;5.10;;;3.87;;
13075;SDS011;6604;52.484;13.330;2023-04-06T19:59:04;6.23;;;4.40;;
13075;SDS011;6604;52.484;13.330;2023-04-06T20:01:31;6.20;;;4.40;;
13075;SDS011;6604;52.484;13.330;2023-04-06T20:03:59;7.63;;;4.10;;
13075;SDS011;6604;52.484;13.330;2023-04-06T20:06:25;9.83;;;4.57;;
13075;SDS011;6604;52.484;13.330;2023-04-06T20:08:52;6.03;;;4.33;;
13075;SDS011;6604;52.484;13.330;2023-04-06T20:11:18;7.07;;;4.63;;
13075;SDS011;6604;52.484;13.330;2023-04-06T20:13:45;6.37;;;4.57;;
13075;SDS011;6604;52.484;13.330;2023-04-06T20:16:12;5.33;;;4.07;;
13075;SDS011;6604;52.484;13.330;2023-04-06T20:18:39;7.07;;;4.60;;
13075;SDS011;6604;52.484;13.330;2023-04-06T20:21:07;6.00;;;4.13;;
13075;SDS011;6604;52.484;13.330;2023-04-06T20:23:33;5.57;;;4.30;;
13075;SDS011;6604;52.484;13.330;2023-04-06T20:26:01;4.97;;;4.47;;
13075;SDS011;6604;52.484;13.330;2023-04-06T20:28:28;7.93;;;4.60;;
13075;SDS011;6604;52.484;13.330;2023-04-06T20:30:55;6.37;;;4.50;;
13075;SDS011;6604;52.484;13.330;2023-04-06T20:33:22;6.70;;;4.60;;
13075;SDS011;6604;52.484;13.330;2023-04-06T20:35:54;6.07;;;4.20;;
13075;SDS011;6604;52.484;13.330;2023-04-06T20:38:22;8.80;;;5.07;;
13075;SDS011;6604;52.484;13.330;2023-04-06T20:40:49;6.77;;;4.60;;
13075;SDS011;6604;52.484;13.330;2023-04-06T20:43:16;6.70;;;4.63;;
13075;SDS011;6604;52.484;13.330;2023-04-06T20:45:44;8.40;;;5.00;;
13075;SDS011;6604;52.484;13.330;2023-04-06T20:48:11;8.47;;;4.90;;
13075;SDS011;6604;52.484;13.330;2023-04-06T20:50:37;7.10;;;4.77;;
13075;SDS011;6604;52.484;13.330;2023-04-06T20:53:04;7.83;;;4.97;;
13075;SDS011;6604;52.484;13.330;2023-04-06T20:55:32;9.80;;;5.77;;
13075;SDS011;6604;52.484;13.330;2023-04-06T20:57:59;9.70;;;5.30;;
13075;SDS011;6604;52.484;13.330;2023-04-06T21:00:26;9.20;;;5.47;;
13075;SDS011;6604;52.484;13.330;2023-04-06T21:02:52;12.00;;;6.83;;
13075;SDS011;6604;52.484;13.330;2023-04-06T21:05:19;9.17;;;5.93;;
13075;SDS011;6604;52.484;13.330;2023-04-06T21:07:45;7.57;;;4.93;;
13075;SDS011;6604;52.484;13.330;2023-04-06T21:10:12;6.03;;;4.93;;
13075;SDS011;6604;52.484;13.330;2023-04-06T21:12:40;8.63;;;5.30;;
13075;SDS011;6604;52.484;13.330;2023-04-06T21:15:07;9.70;;;5.23;;
13075;SDS011;6604;52.484;13.330;2023-04-06T21:17:33;9.50;;;5.33;;
13075;SDS011;6604;52.484;13.330;2023-04-06T21:20:00;6.57;;;4.70;;
13075;SDS011;6604;52.484;13.330;2023-04-06T21:22:28;11.77;;;5.30;;
13075;SDS011;6604;52.484;13.330;2023-04-06T21:24:54;24.83;;;13.10;;
13075;SDS011;6604;52.484;13.330;2023-04-06T21:27:21;13.10;;;7.43;;
13075;SDS011;6604;52.484;13.330;2023-04-06T21:29:50;8.57;;;5.23;;
